Data for 11/22/2010

Time Sea-Level Adjusted Pressure Absolute Pressure Temperature Relative Humidity Dew Point   
(mb) (inHg) (mb) (inHg) (C) (F) (%) (C) (F)
00:05 1006 29.71 835 24.66 -15.7 3.8 83 -17.9 -0.2
00:10 1006 29.71 835 24.66 -15.7 3.8 83 -18 -0.3
00:15 1006 29.71 835 24.66 -15.8 3.6 83 -18.1 -0.6
00:20 1006 29.71 835 24.66 -15.9 3.4 83 -18.1 -0.6
00:25 1006 29.71 835 24.66 -15.8 3.5 82 -18.2 -0.8
00:30 1006 29.71 835 24.66 -16.1 3.1 84 -18.2 -0.8
00:35 1006 29.71 835 24.66 -16 3.2 83 -18.3 -1
00:40 1006 29.71 835 24.66 -16.3 2.8 83 -18.5 -1.3
00:45 1006 29.71 836 24.69 -16.3 2.7 83 -18.5 -1.3
00:50 1006 29.71 836 24.69 -16.1 3.1 82 -18.5 -1.3
00:55 1006 29.71 836 24.69 -16 3.1 82 -18.4 -1.1
01:00 1006 29.71 836 24.69 -16.1 3 82 -18.5 -1.3
01:05 1006 29.71 836 24.69 -16.1 3 82 -18.5 -1.2
01:10 1006 29.71 836 24.69 -16.1 3.1 81 -18.6 -1.5
01:15 1006 29.71 836 24.69 -16.2 2.8 82 -18.6 -1.4
01:20 1006 29.71 836 24.69 -16.2 2.9 82 -18.5 -1.4
01:25 1006 29.71 836 24.69 -16.1 3 82 -18.5 -1.2
01:30 1006 29.71 836 24.69 -16.1 3.1 82 -18.4 -1.2
01:35 1006 29.71 836 24.69 -16.2 2.9 82 -18.5 -1.3
01:40 1006 29.71 836 24.69 -16.2 2.8 82 -18.6 -1.4
01:45 1006 29.71 836 24.69 -16.3 2.6 83 -18.6 -1.5
01:50 1006 29.71 836 24.69 -16.3 2.7 83 -18.6 -1.5
01:55 1006 29.71 836 24.69 -16.2 2.8 82 -18.6 -1.4
02:00 1006 29.71 836 24.69 -16.2 2.8 82 -18.6 -1.4
02:05 1007 29.74 836 24.69 -16.2 2.8 81 -18.7 -1.7
02:10 1006 29.71 836 24.69 -16.4 2.5 82 -18.8 -1.8
02:15 1006 29.71 836 24.69 -16.6 2.2 83 -18.8 -1.8
02:20 1006 29.71 836 24.69 -16.3 2.6 82 -18.7 -1.6
02:25 1007 29.74 836 24.69 -16.4 2.5 83 -18.7 -1.6
02:30 1007 29.74 836 24.69 -16.4 2.4 82 -18.9 -2
02:35 1007 29.74 836 24.69 -16.5 2.3 83 -18.8 -1.8
02:40 1007 29.74 836 24.69 -16.4 2.6 82 -18.7 -1.7
02:45 1007 29.74 836 24.69 -16.3 2.6 82 -18.8 -1.8
02:50 1007 29.74 836 24.69 -16.4 2.6 82 -18.8 -1.8
02:55 1007 29.74 836 24.69 -16.4 2.6 81 -18.9 -2
03:00 1007 29.74 836 24.69 -16.4 2.4 81 -19 -2.2
03:05 1007 29.74 836 24.69 -16.8 1.7 83 -19.1 -2.3
03:10 1006 29.71 836 24.69 -16.9 1.6 83 -19.1 -2.3
03:15 1007 29.74 836 24.69 -16.7 1.9 83 -19 -2.1
03:20 1007 29.74 836 24.69 -16.8 1.8 83 -19 -2.1
03:25 1006 29.71 836 24.69 -16.8 1.7 84 -18.9 -2
03:30 1006 29.71 836 24.69 -16.6 2.1 84 -18.8 -1.8
03:35 1006 29.71 836 24.69 -16.6 2.1 84 -18.7 -1.7
03:40 1006 29.71 836 24.69 -16.6 2.1 84 -18.7 -1.6
03:45 1006 29.71 836 24.69 -16.4 2.4 82 -18.8 -1.8
03:50 1006 29.71 836 24.69 -16.5 2.2 84 -18.7 -1.6
03:55 1006 29.71 835 24.66 -16.4 2.4 83 -18.7 -1.7
04:00 1006 29.71 835 24.66 -16.4 2.6 83 -18.6 -1.5
04:05 1006 29.71 836 24.69 -16.4 2.5 83 -18.6 -1.5
04:10 1006 29.71 835 24.66 -16.4 2.5 83 -18.6 -1.5
04:15 1006 29.71 836 24.69 -16.5 2.3 83 -18.7 -1.7
04:20 1006 29.71 835 24.66 -16.5 2.3 84 -18.6 -1.5
04:25 1006 29.71 835 24.66 -16.5 2.4 82 -18.8 -1.8
04:30 1006 29.71 835 24.66 -16.5 2.4 83 -18.7 -1.7
04:35 1006 29.71 835 24.66 -16.4 2.6 83 -18.5 -1.4
04:40 1006 29.71 835 24.66 -16.3 2.7 84 -18.4 -1.2
04:45 1006 29.71 835 24.66 -16.1 3 83 -18.4 -1.1
04:50 1006 29.71 835 24.66 -16.1 3 82 -18.5 -1.2
04:55 1006 29.71 835 24.66 -16.2 2.8 83 -18.5 -1.3
05:00 1006 29.71 835 24.66 -16.1 3.1 83 -18.4 -1
05:05 1006 29.71 835 24.66 -16.1 3.1 82 -18.4 -1.2
05:10 1006 29.71 835 24.66 -16 3.2 83 -18.3 -0.9
05:15 1006 29.71 835 24.66 -16 3.2 82 -18.4 -1.1
05:20 1006 29.71 835 24.66 -16 3.3 82 -18.4 -1.1
05:25 1006 29.71 835 24.66 -16 3.3 82 -18.4 -1.1
05:30 1006 29.71 835 24.66 -16 3.2 83 -18.2 -0.8
05:35 1006 29.71 835 24.66 -15.9 3.4 82 -18.3 -0.9
05:40 1006 29.71 835 24.66 -16.2 2.8 85 -18.2 -0.7
05:45 1006 29.71 835 24.66 -16.3 2.7 83 -18.5 -1.4
05:50 1006 29.71 835 24.66 -16.5 2.3 86 -18.3 -1
05:55 1006 29.71 835 24.66 -16.1 3 84 -18.2 -0.7
06:00 1006 29.71 835 24.66 -15.9 3.3 83 -18.2 -0.7
06:05 1006 29.71 835 24.66 -15.9 3.4 83 -18.2 -0.8
06:10 1006 29.71 835 24.66 -16 3.3 83 -18.3 -0.9
06:15 1006 29.71 835 24.66 -16 3.3 83 -18.3 -0.9
06:20 1006 29.71 835 24.66 -16 3.2 81 -18.6 -1.4
06:25 1006 29.71 835 24.66 -16.2 2.8 83 -18.5 -1.3
06:30 1006 29.71 835 24.66 -16.2 2.9 82 -18.6 -1.4
06:35 1006 29.71 835 24.66 -16.2 2.9 81 -18.8 -1.9
06:40 1006 29.71 835 24.66 -16.4 2.5 82 -18.7 -1.7
06:45 1006 29.71 835 24.66 -16.3 2.6 83 -18.6 -1.5
06:50 1006 29.71 835 24.66 -16.3 2.7 82 -18.7 -1.6
06:55 1006 29.71 835 24.66 -16.3 2.8 82 -18.6 -1.5
07:00 1006 29.71 835 24.66 -16.4 2.6 82 -18.8 -1.8
07:05 1006 29.71 835 24.66 -16.9 1.7 83 -19.1 -2.4
07:10 1006 29.71 835 24.66 -17 1.5 85 -18.9 -2.1
07:15 1006 29.71 835 24.66 -16.8 1.8 85 -18.7 -1.7
07:20 1006 29.71 835 24.66 -16.5 2.4 84 -18.6 -1.5
07:25 1006 29.71 835 24.66 -16.4 2.6 82 -18.7 -1.7
07:30 1006 29.71 835 24.66 -16.6 2.2 83 -18.8 -1.8
07:35 1006 29.71 835 24.66 -16.7 1.9 83 -18.9 -2.1
07:40 1006 29.71 835 24.66 -16.8 1.9 84 -18.8 -1.9
07:45 1006 29.71 835 24.66 -16.5 2.3 84 -18.6 -1.5
07:50 1006 29.71 835 24.66 -16.3 2.7 83 -18.5 -1.3
07:55 1006 29.71 835 24.66 -16.2 2.9 83 -18.5 -1.3
08:00 1006 29.71 835 24.66 -16.1 2.9 81 -18.6 -1.6
08:05 1006 29.71 835 24.66 -16.3 2.8 82 -18.6 -1.5
08:10 1006 29.71 835 24.66 -16.2 2.8 82 -18.6 -1.5
08:15 1006 29.71 835 24.66 -16.2 2.8 82 -18.6 -1.4
08:20 1006 29.71 835 24.66 -16.1 3 82 -18.5 -1.4
08:25 1006 29.71 836 24.69 -16 3.1 82 -18.5 -1.3
08:30 1006 29.71 836 24.69 -16 3.3 80 -18.6 -1.5
08:35 1006 29.71 836 24.69 -16 3.3 81 -18.6 -1.4
08:40 1006 29.71 836 24.69 -15.9 3.4 81 -18.5 -1.2
08:45 1006 29.71 836 24.69 -15.7 3.7 80 -18.4 -1.1
08:50 1006 29.71 836 24.69 -15.6 3.9 79 -18.4 -1.2
08:55 1006 29.71 836 24.69 -15.8 3.6 79 -18.6 -1.5
09:00 1006 29.71 836 24.69 -16.1 3 81 -18.6 -1.5
09:05 1006 29.71 836 24.69 -15.9 3.3 81 -18.5 -1.3
09:10 1006 29.71 836 24.69 -15.6 4 80 -18.4 -1
09:15 1006 29.71 836 24.69 -15.5 4.1 80 -18.2 -0.8
09:20 1006 29.71 836 24.69 -15.4 4.3 78 -18.4 -1.2
09:25 1007 29.74 836 24.69 -15.8 3.6 80 -18.5 -1.3
09:30 1006 29.71 836 24.69 -15.8 3.5 79 -18.6 -1.6
09:35 1006 29.71 836 24.69 -15.8 3.5 79 -18.6 -1.5
09:40 1006 29.71 835 24.66 -15.7 3.7 78 -18.7 -1.6
09:45 1006 29.71 835 24.66 -15.7 3.7 79 -18.5 -1.4
09:50 1006 29.71 835 24.66 -15.6 3.9 80 -18.4 -1
09:55 1006 29.71 835 24.66 -15.2 4.6 79 -18.1 -0.6
10:00 1006 29.71 835 24.66 -14.9 5.2 77 -18.1 -0.6
10:05 1006 29.71 835 24.66 -15.1 4.9 77 -18.2 -0.8
10:10 1006 29.71 836 24.69 -15.2 4.7 77 -18.3 -1
10:15 1006 29.71 836 24.69 -15.1 4.7 76 -18.4 -1.2
10:20 1006 29.71 836 24.69 -15.1 4.8 76 -18.4 -1.1
10:25 1006 29.71 836 24.69 -15.1 4.9 77 -18.2 -0.7
10:30 1007 29.74 836 24.69 -14.8 5.3 75 -18.3 -0.9
10:35 1007 29.74 836 24.69 -15 5.1 76 -18.4 -1
10:40 1007 29.74 836 24.69 -14.5 5.8 75 -18.1 -0.5
10:45 1007 29.74 836 24.69 -14.8 5.4 76 -18.1 -0.6
10:50 1007 29.74 836 24.69 -14.7 5.5 75 -18.2 -0.7
10:55 1007 29.74 836 24.69 -14.6 5.7 75 -18.1 -0.6
11:00 1007 29.74 836 24.69 -14.2 6.4 72 -18.2 -0.8
11:05 1007 29.74 836 24.69 -14 6.8 71 -18.2 -0.8
11:10 1007 29.74 836 24.69 -13.6 7.5 69 -18.2 -0.8
11:15 1007 29.74 836 24.69 -14.2 6.4 72 -18.2 -0.8
11:20 1007 29.74 836 24.69 -14 6.9 71 -18.1 -0.5
11:25 1007 29.74 836 24.69 -13.4 8 69 -18 -0.3
11:30 1007 29.74 836 24.69 -13.1 8.4 66 -18.1 -0.6
11:35 1007 29.74 836 24.69 -13.8 7.1 72 -17.9 -0.2
11:40 1007 29.74 836 24.69 -14.3 6.2 72 -18.4 -1.1
11:45 1007 29.74 836 24.69 -14 6.7 72 -18.1 -0.6
11:50 1006 29.71 836 24.69 -13.8 7.1 69 -18.3 -1
11:55 1006 29.71 836 24.69 -13.6 7.5 70 -18 -0.4
12:00 1006 29.71 836 24.69 -13.5 7.7 72 -17.6 0.3
12:05 1006 29.71 835 24.66 -13 8.7 68 -17.8 0
12:10 1006 29.71 836 24.69 -12.6 9.4 64 -18 -0.4
12:15 1006 29.71 836 24.69 -12.2 10.1 63 -17.8 0
12:20 1006 29.71 836 24.69 -11.9 10.5 64 -17.4 0.7
12:25 1006 29.71 836 24.69 -12.3 9.9 64 -17.8 -0
12:30 1007 29.74 836 24.69 -12.1 10.3 62 -17.9 -0.1
12:35 1006 29.71 836 24.69 -12.4 9.6 66 -17.6 0.4
12:40 1006 29.71 835 24.66 -12.4 9.6 65 -17.8 0
12:45 1006 29.71 835 24.66 -12.5 9.5 64 -18.1 -0.5
12:50 1006 29.71 835 24.66 -12.8 9 67 -17.7 0.1
12:55 1006 29.71 835 24.66 -12.6 9.4 66 -17.6 0.3
13:00 1006 29.71 835 24.66 -11.7 11 62 -17.5 0.5
13:05 1006 29.71 835 24.66 -11.7 11 61 -17.7 0.2
13:10 1006 29.71 835 24.66 -12.5 9.6 66 -17.6 0.3
13:15 1006 29.71 835 24.66 -12.9 8.8 66 -17.9 -0.2
13:20 1006 29.71 835 24.66 -13.6 7.6 72 -17.6 0.3
13:25 1006 29.71 835 24.66 -13.3 8 68 -18 -0.3
13:30 1006 29.71 835 24.66 -13.2 8.2 69 -17.8 -0
13:35 1006 29.71 835 24.66 -13.8 7.1 72 -17.9 -0.2
13:40 1006 29.71 835 24.66 -13.9 7 71 -18.2 -0.7
13:45 1006 29.71 835 24.66 -13.6 7.5 69 -18.1 -0.6
13:50 1006 29.71 835 24.66 -13.8 7.1 73 -17.7 0.1
13:55 1006 29.71 835 24.66 -13.5 7.7 70 -17.9 -0.3
14:00 1006 29.71 835 24.66 -13.5 7.8 70 -17.8 -0.1
14:05 1006 29.71 835 24.66 -13.5 7.7 69 -18 -0.3
14:10 1006 29.71 835 24.66 -13.7 7.4 70 -18.1 -0.5
14:15 1006 29.71 835 24.66 -13.5 7.7 68 -18.2 -0.8
14:20 1006 29.71 835 24.66 -13.7 7.3 70 -18.1 -0.5
14:25 1006 29.71 835 24.66 -14.5 5.8 75 -18.1 -0.6
14:30 1006 29.71 835 24.66 -14.5 5.8 73 -18.3 -0.9
14:35 1006 29.71 835 24.66 -14.3 6.2 73 -18.2 -0.8
14:40 1006 29.71 835 24.66 -14.3 6.3 74 -18 -0.5
14:45 1006 29.71 835 24.66 -14.7 5.6 76 -17.9 -0.3
14:50 1006 29.71 835 24.66 -14.6 5.8 75 -18.1 -0.5
14:55 1006 29.71 835 24.66 -14.4 6 75 -17.9 -0.3
15:00 1006 29.71 835 24.66 -14.7 5.5 76 -18 -0.4
15:05 1006 29.71 835 24.66 -14.8 5.3 75 -18.3 -1
15:10 1006 29.71 835 24.66 -14.5 5.9 75 -18.1 -0.6
15:15 1006 29.71 836 24.69 -14.5 5.9 75 -18 -0.5
15:20 1007 29.74 836 24.69 -14.5 5.9 74 -18.2 -0.7
15:25 1007 29.74 836 24.69 -14.6 5.8 74 -18.3 -0.9
15:30 1007 29.74 836 24.69 -14.6 5.7 75 -18.2 -0.7
15:35 1007 29.74 836 24.69 -14.6 5.7 74 -18.2 -0.8
15:40 1007 29.74 836 24.69 -14.6 5.8 74 -18.2 -0.8
15:45 1007 29.74 836 24.69 -14.5 5.8 75 -18.1 -0.6
15:50 1007 29.74 836 24.69 -14.7 5.5 76 -18.1 -0.6
15:55 1007 29.74 837 24.72 -14.9 5.2 75 -18.3 -1
16:00 1007 29.74 837 24.72 -15 5.1 77 -18.2 -0.8
16:05 1008 29.77 837 24.72 -14.9 5.1 77 -18.1 -0.6
16:10 1008 29.77 837 24.72 -14.9 5.2 77 -18 -0.5
16:15 1008 29.77 837 24.72 -14.9 5.2 77 -18 -0.5
16:20 1008 29.77 837 24.72 -15.1 4.9 77 -18.2 -0.8
16:25 1008 29.77 838 24.75 -15.2 4.6 77 -18.3 -1
16:30 1009 29.8 838 24.75 -15.3 4.4 78 -18.4 -1.1
16:35 1009 29.8 838 24.75 -15.3 4.4 78 -18.4 -1.1
16:40 1009 29.8 838 24.75 -15.4 4.3 78 -18.5 -1.3
16:45 1009 29.8 838 24.75 -15.4 4.3 78 -18.4 -1.1
16:50 1009 29.8 838 24.75 -15.5 4.2 79 -18.3 -0.9
16:55 1009 29.8 838 24.75 -15.4 4.2 79 -18.2 -0.8
17:00 1010 29.83 839 24.78 -15.6 4 81 -18.2 -0.7
17:05 1010 29.83 839 24.78 -15.5 4.1 80 -18.2 -0.7
17:10 1010 29.83 839 24.78 -15.7 3.7 82 -18.1 -0.6
17:15 1010 29.83 839 24.78 -16 3.3 82 -18.3 -1
17:20 1010 29.83 839 24.78 -15.9 3.3 85 -17.9 -0.3
17:25 1010 29.83 839 24.78 -15.8 3.5 84 -17.9 -0.2
17:30 1010 29.83 839 24.78 -16 3.2 85 -18 -0.4
17:35 1009 29.8 838 24.75 -16.1 3.1 85 -18.1 -0.6
17:40 1009 29.8 838 24.75 -16.2 2.8 85 -18.2 -0.8
17:45 1009 29.8 838 24.75 -16.3 2.7 85 -18.3 -0.9
17:50 1009 29.8 838 24.75 -16.1 2.9 83 -18.3 -1
17:55 1009 29.8 838 24.75 -16.2 2.9 82 -18.6 -1.5
18:00 1009 29.8 838 24.75 -16.2 2.9 81 -18.7 -1.7
18:05 1009 29.8 838 24.75 -16 3.2 81 -18.6 -1.4
18:10 1009 29.8 838 24.75 -15.9 3.4 81 -18.5 -1.3
18:15 1009 29.8 838 24.75 -16 3.2 81 -18.5 -1.3
18:20 1009 29.8 838 24.75 -16 3.2 80 -18.7 -1.6
18:25 1009 29.8 838 24.75 -16 3.2 81 -18.6 -1.5
18:30 1009 29.8 838 24.75 -16 3.3 82 -18.4 -1.2
18:35 1009 29.8 838 24.75 -15.9 3.4 80 -18.5 -1.3
18:40 1009 29.8 838 24.75 -15.7 3.7 79 -18.6 -1.4
18:45 1009 29.8 838 24.75 -15.6 3.8 80 -18.3 -0.9
18:50 1009 29.8 838 24.75 -15.7 3.8 81 -18.2 -0.8
18:55 1009 29.8 838 24.75 -15.7 3.8 82 -18 -0.4
19:00 1009 29.8 838 24.75 -15.7 3.7 83 -17.9 -0.2
19:05 1009 29.8 838 24.75 -15.7 3.7 84 -17.9 -0.2
19:10 1009 29.8 838 24.75 -15.9 3.4 85 -17.8 -0
19:15 1009 29.8 838 24.75 -15.9 3.4 86 -17.7 0.2
19:20 1009 29.8 838 24.75 -15.7 3.8 86 -17.5 0.5
19:25 1009 29.8 838 24.75 -15.4 4.2 83 -17.8 0
19:30 1009 29.8 839 24.78 -15.5 4.2 81 -18 -0.4
19:35 1010 29.83 839 24.78 -15.6 4 82 -18 -0.3
19:40 1010 29.83 839 24.78 -15.7 3.7 83 -18 -0.4
19:45 1010 29.83 839 24.78 -15.8 3.5 84 -17.9 -0.3
19:50 1010 29.83 839 24.78 -16 3.3 84 -18 -0.4
19:55 1010 29.83 839 24.78 -16.1 3.1 84 -18.1 -0.6
20:00 1010 29.83 839 24.78 -16.3 2.7 86 -18.1 -0.6
20:05 1010 29.83 839 24.78 -16.3 2.7 86 -18.1 -0.6
20:10 1009 29.8 839 24.78 -16.3 2.7 86 -18.1 -0.7
20:15 1009 29.8 838 24.75 -16.4 2.4 86 -18.3 -0.9
20:20 1009 29.8 839 24.78 -16.7 1.9 88 -18.3 -1
20:25 1009 29.8 839 24.78 -16.7 1.9 88 -18.2 -0.8
20:30 1009 29.8 838 24.75 -16.6 2.2 87 -18.3 -1
20:35 1009 29.8 839 24.78 -16.6 2.1 87 -18.3 -0.9
20:40 1009 29.8 838 24.75 -16.6 2.1 87 -18.3 -0.9
20:45 1009 29.8 838 24.75 -16.5 2.3 86 -18.2 -0.8
20:50 1009 29.8 838 24.75 -16.7 1.9 87 -18.4 -1.1
20:55 1009 29.8 838 24.75 -17 1.4 88 -18.5 -1.4
21:00 1009 29.8 838 24.75 -17.1 1.2 88 -18.6 -1.5
21:05 1009 29.8 838 24.75 -17 1.3 88 -18.6 -1.5
21:10 1009 29.8 838 24.75 -17.2 1.1 86 -18.9 -2.1
21:15 1009 29.8 838 24.75 -17.3 0.9 85 -19.2 -2.5
21:20 1009 29.8 838 24.75 -17.4 0.7 85 -19.3 -2.8
21:25 1009 29.8 838 24.75 -17.5 0.4 86 -19.4 -2.9
21:30 1009 29.8 838 24.75 -17.7 0.1 86 -19.6 -3.2
21:35 1009 29.8 838 24.75 -17.8 -0.1 86 -19.6 -3.4
21:40 1008 29.77 838 24.75 -17.8 -0.1 86 -19.7 -3.5
21:45 1008 29.77 838 24.75 -18 -0.5 86 -19.9 -3.8
21:50 1008 29.77 838 24.75 -18 -0.3 86 -19.7 -3.5
21:55 1008 29.77 838 24.75 -17.9 -0.1 86 -19.7 -3.5
22:00 1008 29.77 838 24.75 -17.9 -0.3 86 -19.7 -3.5
22:05 1008 29.77 838 24.75 -17.7 0.1 86 -19.6 -3.2
22:10 1008 29.77 838 24.75 -17.7 0.2 85 -19.6 -3.2
22:15 1008 29.77 838 24.75 -17.7 0.2 85 -19.5 -3.2
22:20 1008 29.77 838 24.75 -17.6 0.2 85 -19.5 -3.2
22:25 1008 29.77 838 24.75 -17.7 0.2 85 -19.6 -3.2
22:30 1008 29.77 838 24.75 -17.5 0.4 84 -19.6 -3.2
22:35 1008 29.77 838 24.75 -17.9 -0.1 86 -19.7 -3.4
22:40 1008 29.77 837 24.72 -18.2 -0.7 87 -19.9 -3.8
22:45 1008 29.77 837 24.72 -18.3 -1 87 -20 -4
22:50 1008 29.77 837 24.72 -18.4 -1.2 87 -20.1 -4.1
22:55 1008 29.77 838 24.75 -18.5 -1.3 87 -20.2 -4.3
23:00 1008 29.77 837 24.72 -18.5 -1.3 85 -20.5 -4.9
23:05 1008 29.77 837 24.72 -18.4 -1.1 80 -21 -5.9
23:10 1008 29.77 837 24.72 -18.3 -0.9 80 -21 -5.7
23:15 1008 29.77 837 24.72 -18.3 -0.9 78 -21.3 -6.3
23:20 1007 29.74 837 24.72 -18.3 -0.9 76 -21.5 -6.7
23:25 1007 29.74 836 24.69 -18.3 -0.9 77 -21.4 -6.5
23:30 1007 29.74 836 24.69 -18.3 -0.9 77 -21.4 -6.6
23:35 1007 29.74 836 24.69 -18.3 -0.9 78 -21.2 -6.1
23:40 1007 29.74 836 24.69 -18.5 -1.2 83 -20.7 -5.2
23:45 1007 29.74 836 24.69 -18.7 -1.6 84 -20.7 -5.3
23:50 1007 29.74 836 24.69 -19.1 -2.4 86 -20.9 -5.6
23:55 1007 29.74 836 24.69 -19.4 -2.9 86 -21.1 -6.1
24:00 1007 29.74 836 24.69 -19.7 -3.5 87 -21.3 -6.4